createdAt,value
2018-06-09T00:00:08.406Z,2.60
2018-06-09T00:02:42.660Z,3.40
2018-06-09T00:05:16.853Z,4.50
2018-06-09T00:07:51.132Z,4.90
2018-06-09T00:10:25.428Z,5.60
2018-06-09T00:12:59.664Z,6.10
2018-06-09T00:15:33.789Z,6.10
2018-06-09T00:18:08.060Z,6.10
2018-06-09T00:20:42.414Z,6.10
2018-06-09T00:23:16.634Z,6.10
2018-06-09T00:25:50.870Z,6.10
2018-06-09T00:28:25.100Z,6.10
2018-06-09T00:30:59.560Z,6.10
2018-06-09T00:33:34.814Z,6.30
2018-06-09T00:36:09.116Z,6.70
2018-06-09T00:38:43.564Z,7.10
2018-06-09T00:41:17.990Z,6.90
2018-06-09T00:43:52.339Z,6.00
2018-06-09T00:46:26.712Z,5.30
2018-06-09T00:49:01.046Z,5.00
2018-06-09T00:51:35.379Z,5.00
2018-06-09T00:54:09.628Z,5.30
2018-06-09T00:56:45.876Z,5.00
2018-06-09T00:59:20.303Z,4.80
2018-06-09T01:01:55.029Z,5.10
2018-06-09T01:04:30.360Z,4.00
2018-06-09T01:07:05.096Z,4.00
2018-06-09T01:09:39.461Z,3.50
2018-06-09T01:12:14.935Z,3.90
2018-06-09T01:14:49.257Z,3.50
2018-06-09T01:17:24.088Z,3.50
2018-06-09T01:19:58.804Z,3.70
2018-06-09T01:22:33.101Z,4.00
2018-06-09T01:25:08.175Z,4.30
2018-06-09T01:27:42.787Z,4.00
2018-06-09T01:30:17.094Z,4.10
2018-06-09T01:32:51.848Z,4.30
2018-06-09T01:35:26.088Z,4.60
2018-06-09T01:38:00.267Z,4.60
2018-06-09T01:40:34.410Z,4.80
2018-06-09T01:45:42.566Z,5.20
2018-06-09T01:48:16.804Z,5.40
2018-06-09T01:50:51.664Z,5.60
2018-06-09T01:53:25.949Z,5.20
2018-06-09T01:56:00.286Z,5.60
2018-06-09T01:58:34.599Z,5.40
2018-06-09T02:01:08.960Z,4.90
2018-06-09T02:03:43.095Z,4.80
2018-06-09T02:06:17.540Z,5.10
2018-06-09T02:08:51.988Z,5.00
2018-06-09T02:11:26.396Z,5.20
2018-06-09T02:14:00.686Z,4.90
2018-06-09T02:16:35.197Z,5.50
2018-06-09T02:19:09.449Z,5.50
2018-06-09T02:21:43.717Z,5.70
2018-06-09T02:24:18.008Z,5.60
2018-06-09T02:26:52.285Z,5.60
2018-06-09T02:29:27.192Z,5.40
2018-06-09T02:32:01.396Z,5.40
2018-06-09T02:34:35.614Z,5.50
2018-06-09T02:37:09.901Z,5.40
2018-06-09T02:39:44.165Z,5.40
2018-06-09T02:42:18.488Z,5.50
2018-06-09T02:44:52.782Z,4.70
2018-06-09T02:47:27.257Z,4.40
2018-06-09T02:50:01.686Z,4.90
2018-06-09T02:52:35.998Z,4.70
2018-06-09T02:55:10.185Z,4.40
2018-06-09T02:57:44.582Z,3.90
2018-06-09T03:02:52.730Z,4.00
2018-06-09T03:05:26.945Z,4.20
2018-06-09T03:10:35.845Z,3.40
2018-06-09T03:13:10.456Z,2.80
2018-06-09T03:15:44.791Z,2.60
2018-06-09T03:18:19.090Z,3.00
2018-06-09T03:20:53.325Z,2.60
2018-06-09T03:23:27.556Z,2.40
2018-06-09T03:26:01.946Z,1.80
2018-06-09T03:28:36.269Z,1.80
2018-06-09T03:31:10.709Z,1.40
2018-06-09T03:33:45.141Z,1.00
2018-06-09T03:36:19.374Z,1.00
2018-06-09T03:38:53.641Z,1.00
2018-06-09T03:41:27.894Z,1.00
2018-06-09T03:44:02.125Z,1.00
2018-06-09T03:46:36.423Z,1.00
2018-06-09T03:49:10.868Z,1.00
2018-06-09T03:51:45.081Z,1.00
2018-06-09T03:54:19.449Z,1.00
2018-06-09T03:56:53.614Z,1.00
2018-06-09T03:59:27.740Z,1.00
2018-06-09T04:04:36.140Z,1.00
2018-06-09T04:07:10.285Z,1.00
2018-06-09T04:09:44.454Z,1.00
2018-06-09T04:12:18.806Z,1.00
2018-06-09T04:14:53.217Z,1.00
2018-06-09T04:17:27.640Z,1.00
2018-06-09T04:20:02.031Z,1.00
2018-06-09T04:22:36.380Z,1.00
2018-06-09T04:25:10.761Z,1.00
2018-06-09T04:27:45.121Z,1.00
2018-06-09T04:30:19.361Z,1.00
2018-06-09T04:32:53.633Z,1.00
2018-06-09T04:35:27.832Z,1.00
2018-06-09T04:38:02.123Z,1.00
2018-06-09T04:40:36.479Z,1.00
2018-06-09T04:43:10.760Z,1.00
2018-06-09T04:45:45.108Z,1.00
2018-06-09T04:50:53.445Z,1.00
2018-06-09T04:53:28.088Z,1.00
2018-06-09T04:56:02.409Z,1.00
2018-06-09T04:58:36.702Z,1.00
2018-06-09T05:01:12.878Z,1.00
2018-06-09T05:03:47.103Z,1.00
2018-06-09T05:06:22.024Z,1.00
2018-06-09T05:08:56.233Z,1.00
2018-06-09T05:11:30.653Z,1.00
2018-06-09T05:14:05.916Z,1.00
2018-06-09T05:16:41.236Z,1.00
2018-06-09T05:19:15.524Z,1.00
2018-06-09T05:21:49.704Z,1.00
2018-06-09T05:24:24.045Z,1.00
2018-06-09T05:26:58.247Z,1.00
2018-06-09T05:29:32.634Z,1.00
2018-06-09T05:32:06.976Z,1.00
2018-06-09T05:34:41.164Z,1.00
2018-06-09T05:37:15.339Z,1.00
2018-06-09T05:39:49.645Z,1.00
2018-06-09T05:42:24.052Z,1.00
2018-06-09T05:44:58.240Z,1.00
2018-06-09T05:47:32.564Z,1.00
2018-06-09T05:50:06.821Z,1.00
2018-06-09T05:52:41.053Z,1.00
2018-06-09T05:55:15.406Z,1.00
2018-06-09T05:57:49.654Z,1.00
2018-06-09T06:00:23.859Z,1.00
2018-06-09T06:02:58.106Z,1.00
2018-06-09T06:05:32.429Z,1.00
2018-06-09T06:08:06.976Z,1.00
2018-06-09T06:10:41.275Z,1.00
2018-06-09T06:13:15.588Z,1.00
2018-06-09T06:15:50.158Z,1.00
2018-06-09T06:18:24.420Z,1.00
2018-06-09T06:20:58.914Z,1.00
2018-06-09T06:23:33.059Z,1.00
2018-06-09T06:26:07.284Z,1.00
2018-06-09T06:28:41.575Z,1.00
2018-06-09T06:31:15.846Z,1.00
2018-06-09T06:33:50.069Z,1.00
2018-06-09T06:36:24.408Z,1.00
2018-06-09T06:38:58.729Z,1.00
2018-06-09T06:41:33.078Z,1.00
2018-06-09T06:44:07.273Z,1.00
2018-06-09T06:46:41.586Z,1.00
2018-06-09T06:49:16.133Z,1.00
2018-06-09T06:51:50.405Z,1.00
2018-06-09T06:54:24.756Z,1.00
2018-06-09T06:56:59.498Z,1.00
2018-06-09T06:59:33.821Z,1.00
2018-06-09T07:02:08.185Z,1.00
2018-06-09T07:04:42.573Z,1.00
2018-06-09T07:07:16.851Z,1.00
2018-06-09T07:09:51.169Z,1.00
2018-06-09T07:12:25.591Z,1.00
2018-06-09T07:14:59.969Z,1.00
2018-06-09T07:17:34.209Z,1.00
2018-06-09T07:20:08.495Z,1.00
2018-06-09T07:22:42.759Z,1.00
2018-06-09T07:25:17.088Z,1.00
2018-06-09T07:27:51.406Z,1.00
2018-06-09T07:30:25.570Z,1.00
2018-06-09T07:32:59.852Z,1.00
2018-06-09T07:35:34.180Z,1.00
2018-06-09T07:38:08.421Z,1.00
2018-06-09T07:40:42.743Z,1.00
2018-06-09T07:43:17.073Z,1.00
2018-06-09T07:45:51.443Z,1.00
2018-06-09T07:48:25.714Z,1.00
2018-06-09T07:51:00.071Z,1.00
2018-06-09T07:53:34.412Z,1.00
2018-06-09T07:56:08.669Z,1.00
2018-06-09T07:58:42.932Z,1.00
2018-06-09T08:01:18.074Z,1.00
2018-06-09T08:03:52.392Z,1.00
2018-06-09T08:06:26.650Z,1.00
2018-06-09T08:09:01.749Z,1.00
2018-06-09T08:11:36.101Z,1.00
2018-06-09T08:14:10.432Z,1.00
2018-06-09T08:16:44.603Z,1.00
2018-06-09T08:19:18.943Z,1.00
2018-06-09T08:21:53.277Z,1.00
2018-06-09T08:24:27.732Z,1.00
2018-06-09T08:27:02.549Z,1.00
2018-06-09T08:29:37.372Z,1.00
2018-06-09T08:32:11.737Z,1.00
2018-06-09T08:34:46.825Z,1.00
2018-06-09T08:37:21.652Z,1.00
2018-06-09T08:39:56.732Z,1.00
2018-06-09T08:42:32.041Z,1.00
2018-06-09T08:45:06.485Z,1.00
2018-06-09T08:47:40.770Z,1.00
2018-06-09T08:50:15.017Z,1.00
2018-06-09T08:52:49.309Z,1.00
2018-06-09T08:55:23.655Z,1.00
2018-06-09T08:57:58.077Z,1.00
2018-06-09T09:00:32.988Z,1.00
2018-06-09T09:03:07.545Z,1.00
2018-06-09T09:05:42.750Z,1.00
2018-06-09T09:08:17.448Z,1.00
2018-06-09T09:13:27.534Z,1.00
2018-06-09T09:16:01.777Z,1.00
2018-06-09T09:18:37.196Z,1.00
2018-06-09T09:21:11.934Z,1.00
2018-06-09T09:23:46.957Z,1.00
2018-06-09T09:26:23.006Z,1.00
2018-06-09T09:28:59.300Z,1.00
2018-06-09T09:31:33.678Z,1.00
2018-06-09T09:34:09.087Z,1.00
2018-06-09T09:36:43.785Z,1.00
2018-06-09T09:39:18.192Z,1.00
2018-06-09T09:41:52.728Z,1.00
2018-06-09T09:44:28.150Z,1.00
2018-06-09T09:47:02.697Z,1.00
2018-06-09T09:49:37.095Z,1.00
2018-06-09T09:52:11.610Z,1.00
2018-06-09T09:54:45.949Z,1.00
2018-06-09T09:57:20.588Z,1.00
2018-06-09T09:59:54.936Z,1.00
2018-06-09T10:02:29.202Z,1.00
2018-06-09T10:05:03.738Z,1.00
2018-06-09T10:07:38.685Z,1.00
2018-06-09T10:10:12.954Z,1.00
2018-06-09T10:12:47.596Z,1.00
2018-06-09T10:15:21.956Z,1.00
2018-06-09T10:17:56.845Z,1.00
2018-06-09T10:20:31.056Z,1.00
2018-06-09T10:23:05.248Z,1.00
2018-06-09T10:25:39.612Z,1.00
2018-06-09T10:28:13.905Z,1.00
2018-06-09T10:30:48.829Z,1.00
2018-06-09T10:33:23.179Z,1.00
2018-06-09T10:35:57.528Z,1.00
2018-06-09T10:38:32.009Z,1.00
2018-06-09T10:41:06.341Z,1.00
2018-06-09T10:43:40.697Z,1.00
2018-06-09T10:46:15.898Z,1.00
2018-06-09T10:48:50.104Z,1.00
2018-06-09T10:51:24.493Z,1.00
2018-06-09T10:53:59.323Z,1.00
2018-06-09T10:56:33.593Z,1.00
2018-06-09T10:59:08.068Z,1.00
2018-06-09T11:01:42.610Z,1.00
2018-06-09T11:04:16.941Z,1.00
2018-06-09T11:06:51.298Z,1.00
2018-06-09T11:09:26.209Z,1.00
2018-06-09T11:12:00.522Z,1.00
2018-06-09T11:14:36.008Z,1.00
2018-06-09T11:17:11.463Z,1.00
2018-06-09T11:19:46.097Z,1.00
2018-06-09T11:22:20.615Z,1.00
2018-06-09T11:24:55.138Z,1.00
2018-06-09T11:27:31.201Z,1.00
2018-06-09T11:30:05.532Z,1.00
2018-06-09T11:32:40.054Z,1.00
2018-06-09T11:35:14.965Z,1.00
2018-06-09T11:37:49.511Z,1.00
2018-06-09T11:40:23.996Z,1.00
2018-06-09T11:42:58.328Z,1.00
2018-06-09T11:45:33.107Z,1.00
2018-06-09T11:48:07.678Z,1.00
2018-06-09T11:50:42.943Z,1.00
2018-06-09T11:53:17.628Z,1.00
2018-06-09T11:55:52.380Z,1.00
2018-06-09T11:58:26.897Z,1.00
2018-06-09T12:01:02.126Z,1.00
2018-06-09T12:03:37.530Z,1.00
2018-06-09T12:06:12.109Z,1.00
2018-06-09T12:08:46.428Z,1.00
2018-06-09T12:11:20.758Z,1.00
2018-06-09T12:13:55.240Z,1.00
2018-06-09T12:16:30.287Z,1.00
2018-06-09T12:19:04.660Z,1.00
2018-06-09T12:21:39.055Z,1.00
2018-06-09T12:24:13.553Z,1.00
2018-06-09T12:26:48.306Z,1.00
2018-06-09T12:29:22.949Z,1.00
2018-06-09T12:34:31.583Z,1.00
2018-06-09T12:37:06.728Z,1.00
2018-06-09T12:39:41.230Z,1.00
2018-06-09T12:42:15.771Z,1.00
2018-06-09T12:44:50.428Z,1.00
2018-06-09T12:47:24.867Z,1.00
2018-06-09T12:50:00.238Z,1.00
2018-06-09T12:52:34.682Z,1.00
2018-06-09T12:55:09.207Z,1.00
2018-06-09T12:57:43.644Z,1.00
2018-06-09T13:00:18.004Z,1.00
2018-06-09T13:02:52.937Z,1.00
2018-06-09T13:05:27.344Z,1.00
2018-06-09T13:08:01.813Z,1.00
2018-06-09T13:10:36.200Z,1.00
2018-06-09T13:13:10.756Z,1.00
2018-06-09T13:15:45.176Z,1.00
2018-06-09T13:18:19.695Z,1.00
2018-06-09T13:20:54.148Z,1.00
2018-06-09T13:23:28.571Z,1.00
2018-06-09T13:26:03.265Z,1.00
2018-06-09T13:28:38.054Z,1.00
2018-06-09T13:31:12.585Z,1.00
2018-06-09T13:36:21.669Z,1.00
2018-06-09T13:38:56.409Z,1.00
2018-06-09T13:41:31.113Z,1.00
2018-06-09T13:44:06.160Z,1.00
2018-06-09T13:46:40.683Z,1.00
2018-06-09T13:49:15.958Z,1.00
2018-06-09T13:51:50.497Z,1.00
2018-06-09T13:54:25.144Z,1.00
2018-06-09T13:56:59.926Z,1.00
2018-06-09T13:59:34.316Z,1.00
2018-06-09T14:02:08.688Z,1.00
2018-06-09T14:04:43.045Z,1.00
2018-06-09T14:07:17.293Z,1.00
2018-06-09T14:09:52.423Z,1.00
2018-06-09T14:12:26.923Z,1.00
2018-06-09T14:15:01.281Z,1.00
2018-06-09T14:17:36.107Z,1.00
2018-06-09T14:20:10.481Z,1.00
2018-06-09T14:22:45.057Z,1.00
2018-06-09T14:25:19.613Z,1.00
2018-06-09T14:27:54.090Z,1.00
2018-06-09T14:30:29.597Z,1.00
2018-06-09T14:33:03.837Z,1.00
2018-06-09T14:35:38.372Z,1.00
2018-06-09T14:38:12.836Z,1.00
2018-06-09T14:40:47.297Z,1.00
2018-06-09T14:45:56.577Z,1.00
2018-06-09T14:48:32.573Z,1.00
2018-06-09T14:51:07.642Z,1.00
2018-06-09T14:56:16.893Z,1.00
2018-06-09T14:58:51.509Z,1.00
2018-06-09T15:01:26.941Z,1.00
2018-06-09T15:04:01.194Z,1.00
2018-06-09T15:06:35.581Z,1.00
2018-06-09T15:09:09.900Z,1.00
2018-06-09T15:11:44.241Z,1.00
2018-06-09T15:14:18.752Z,1.00
2018-06-09T15:16:53.409Z,1.00
2018-06-09T15:19:28.095Z,1.00
2018-06-09T15:22:02.522Z,1.00
2018-06-09T15:24:37.161Z,1.00
2018-06-09T15:27:12.252Z,1.00
2018-06-09T15:29:46.697Z,1.00
2018-06-09T15:32:20.963Z,1.00
2018-06-09T15:34:55.268Z,1.00
2018-06-09T15:37:29.549Z,1.00
2018-06-09T15:40:03.785Z,1.00
2018-06-09T15:42:38.165Z,1.00
2018-06-09T15:45:12.525Z,1.00
2018-06-09T15:47:46.980Z,1.00
2018-06-09T15:50:21.465Z,1.00
2018-06-09T15:52:56.920Z,1.00
2018-06-09T15:55:31.241Z,1.00
2018-06-09T15:58:05.717Z,1.00
2018-06-09T16:00:40.065Z,1.00
2018-06-09T16:03:14.392Z,1.00
2018-06-09T16:05:48.748Z,1.00
2018-06-09T16:08:23.119Z,1.00
2018-06-09T16:10:57.605Z,1.00
2018-06-09T16:13:31.951Z,1.00
2018-06-09T16:16:06.235Z,1.00
2018-06-09T16:21:21.750Z,1.00
2018-06-09T16:23:56.102Z,1.00
2018-06-09T16:26:30.312Z,1.00
2018-06-09T16:29:04.714Z,1.00
2018-06-09T16:31:39.110Z,1.00
2018-06-09T16:34:13.312Z,1.00
2018-06-09T16:36:47.770Z,1.00
2018-06-09T16:39:22.118Z,1.00
2018-06-09T16:41:56.356Z,1.00
2018-06-09T16:44:30.816Z,1.00
2018-06-09T16:47:05.128Z,1.00
2018-06-09T16:49:39.370Z,1.00
2018-06-09T16:52:13.675Z,1.00
2018-06-09T16:54:48.112Z,1.00
2018-06-09T16:57:23.785Z,1.00
2018-06-09T16:59:58.257Z,1.00
2018-06-09T17:02:32.623Z,1.00
2018-06-09T17:05:06.894Z,1.00
2018-06-09T17:07:41.217Z,1.00
2018-06-09T17:10:15.532Z,1.00
2018-06-09T17:12:49.856Z,1.00
2018-06-09T17:15:24.171Z,1.00
2018-06-09T17:17:58.651Z,1.00
2018-06-09T17:20:33.437Z,1.00
2018-06-09T17:23:09.256Z,1.00
2018-06-09T17:25:44.056Z,1.00
2018-06-09T17:28:18.322Z,1.00
2018-06-09T17:30:52.561Z,1.00
2018-06-09T17:33:26.780Z,1.00
2018-06-09T17:36:02.007Z,1.00
2018-06-09T17:38:36.506Z,1.00
2018-06-09T17:41:10.688Z,1.00
2018-06-09T17:43:44.905Z,1.00
2018-06-09T17:46:19.336Z,1.00
2018-06-09T17:48:53.656Z,1.00
2018-06-09T17:51:28.113Z,1.00
2018-06-09T17:54:02.486Z,1.00
2018-06-09T17:56:37.020Z,1.00
2018-06-09T17:59:11.404Z,1.00
2018-06-09T18:01:45.882Z,1.00
2018-06-09T18:04:20.201Z,1.00
2018-06-09T18:06:54.614Z,1.00
2018-06-09T18:09:29.135Z,1.00
2018-06-09T18:12:03.462Z,1.00
2018-06-09T18:14:37.797Z,1.00
2018-06-09T18:17:12.084Z,1.00
2018-06-09T18:19:46.806Z,1.00
2018-06-09T18:22:21.569Z,1.00
2018-06-09T18:24:56.066Z,1.00
2018-06-09T18:27:30.548Z,1.00
2018-06-09T18:30:05.581Z,1.00
2018-06-09T18:32:40.059Z,1.00
2018-06-09T18:35:14.512Z,1.00
2018-06-09T18:37:48.905Z,1.00
2018-06-09T18:40:23.250Z,1.00
2018-06-09T18:42:57.580Z,1.00
2018-06-09T18:45:32.089Z,1.00
2018-06-09T18:48:06.425Z,1.00
2018-06-09T18:50:40.897Z,1.00
2018-06-09T18:53:15.173Z,1.00
2018-06-09T18:55:49.473Z,1.00
2018-06-09T18:58:23.692Z,1.00
2018-06-09T19:00:57.895Z,1.00
2018-06-09T19:03:32.226Z,1.00
2018-06-09T19:06:06.548Z,1.00
2018-06-09T19:08:40.973Z,1.00
2018-06-09T19:11:15.192Z,1.00
2018-06-09T19:13:49.467Z,1.00
2018-06-09T19:16:23.816Z,1.00
2018-06-09T19:18:58.115Z,1.00
2018-06-09T19:21:32.340Z,1.00
2018-06-09T19:24:06.799Z,1.00
2018-06-09T19:26:41.301Z,1.00
2018-06-09T19:29:15.597Z,1.00
2018-06-09T19:31:50.385Z,1.00
2018-06-09T19:34:24.593Z,1.00
2018-06-09T19:36:58.953Z,1.00
2018-06-09T19:39:33.440Z,1.00
2018-06-09T19:42:08.344Z,1.00
2018-06-09T19:44:43.249Z,1.00
2018-06-09T19:47:17.707Z,1.00
2018-06-09T19:49:52.353Z,1.00
2018-06-09T19:52:26.795Z,1.00
2018-06-09T19:55:01.377Z,1.00
2018-06-09T19:57:35.689Z,1.00
2018-06-09T20:02:44.528Z,1.00
2018-06-09T20:05:18.837Z,1.00
2018-06-09T20:07:53.384Z,1.00
2018-06-09T20:10:28.207Z,1.00
2018-06-09T20:13:02.814Z,1.00
2018-06-09T20:15:37.325Z,1.00
2018-06-09T20:18:11.642Z,1.00
2018-06-09T20:20:45.992Z,1.00
2018-06-09T20:23:20.372Z,1.00
2018-06-09T20:25:54.720Z,1.00
2018-06-09T20:28:29.998Z,1.00
2018-06-09T20:31:04.486Z,1.00
2018-06-09T20:33:38.708Z,1.00
2018-06-09T20:36:13.133Z,1.00
2018-06-09T20:38:47.860Z,1.00
2018-06-09T20:41:22.404Z,1.00
2018-06-09T20:43:56.846Z,1.00
2018-06-09T20:46:31.189Z,1.00
2018-06-09T20:49:05.762Z,1.00
2018-06-09T20:51:40.344Z,1.00
2018-06-09T20:54:14.786Z,1.00
2018-06-09T20:56:49.240Z,1.00
2018-06-09T20:59:23.955Z,1.00
2018-06-09T21:01:58.628Z,1.00
2018-06-09T21:04:32.861Z,1.00
2018-06-09T21:07:07.281Z,1.00
2018-06-09T21:09:42.428Z,1.00
2018-06-09T21:12:16.628Z,1.00
2018-06-09T21:14:51.086Z,1.00
2018-06-09T21:17:25.577Z,1.00
2018-06-09T21:19:59.863Z,1.00
2018-06-09T21:22:34.629Z,1.00
2018-06-09T21:25:09.044Z,1.00
2018-06-09T21:27:48.768Z,1.00
2018-06-09T21:30:28.473Z,1.00
2018-06-09T21:33:25.554Z,1.00
2018-06-09T21:36:05.387Z,1.00
2018-06-09T21:38:43.992Z,1.00
2018-06-09T21:43:26.109Z,1.00
2018-06-09T21:46:00.510Z,1.00
2018-06-09T21:51:10.080Z,1.00
2018-06-09T21:53:44.444Z,1.00
2018-06-09T21:56:18.694Z,1.00
2018-06-09T22:01:27.034Z,1.00
2018-06-09T22:04:01.237Z,1.00
2018-06-09T22:06:35.577Z,1.00
2018-06-09T22:09:09.985Z,1.00
2018-06-09T22:11:44.244Z,1.00
2018-06-09T22:14:19.436Z,1.00
2018-06-09T22:16:53.744Z,1.00
2018-06-09T22:19:28.099Z,1.00
2018-06-09T22:22:02.461Z,1.00
2018-06-09T22:24:36.724Z,1.00
2018-06-09T22:27:11.000Z,1.00
2018-06-09T22:29:45.178Z,1.00
2018-06-09T22:32:19.510Z,1.00
2018-06-09T22:34:53.899Z,1.10
2018-06-09T22:37:28.439Z,1.80
2018-06-09T22:40:02.671Z,2.70
2018-06-09T22:42:36.940Z,3.10
2018-06-09T22:45:11.646Z,3.80
2018-06-09T22:47:45.881Z,5.20
2018-06-09T22:50:20.095Z,6.20
2018-06-09T22:52:55.080Z,6.10
2018-06-09T22:55:29.468Z,5.40
2018-06-09T22:58:03.768Z,4.70
2018-06-09T23:00:47.545Z,4.80
2018-06-09T23:05:55.753Z,4.70
2018-06-09T23:08:30.072Z,4.90
2018-06-09T23:11:04.512Z,6.10
2018-06-09T23:13:38.849Z,6.20
2018-06-09T23:16:13.269Z,5.70
2018-06-09T23:18:47.480Z,5.50
2018-06-09T23:21:21.664Z,5.10
2018-06-09T23:23:57.043Z,5.10
2018-06-09T23:26:31.240Z,5.50
2018-06-09T23:29:05.557Z,5.90
2018-06-09T23:31:39.884Z,6.80
2018-06-09T23:34:14.092Z,7.00
2018-06-09T23:36:48.465Z,6.80
2018-06-09T23:39:22.821Z,6.80
2018-06-09T23:41:57.083Z,7.00
2018-06-09T23:44:31.290Z,6.90
2018-06-09T23:47:06.508Z,7.30
2018-06-09T23:49:40.697Z,7.80
2018-06-09T23:52:15.025Z,7.90
2018-06-09T23:54:49.328Z,8.10
2018-06-09T23:57:25.009Z,8.60
2018-06-09T23:59:59.208Z,9.90
